Time;durP1;ratioP1;P1;durP2;ratioP2;P2;SDS_P1;SDS_P2;PMS_P1;PMS_P2;Temp;Humidity;BMP_temperature;BMP_pressure;BME280_temperature;BME280_humidity;BME280_pressure;Samples;Min_cycle;Max_cycle;Signal;HPM_P1;HPM_P2
2022/05/22 00:01:51;;;;;;;3.60;2.60;;;;;;;11.61;80.21;99975.48;84855;1325;24202;-72
2022/05/22 00:03:59;;;;;;;6.40;2.40;;;;;;;11.61;80.10;99974.27;84847;1325;24193;-71
2022/05/22 00:06:06;;;;;;;3.50;2.00;;;;;;;11.61;80.05;99973.58;84877;1325;22587;-71
2022/05/22 00:08:14;;;;;;;5.80;2.00;;;;;;;11.61;80.01;99976.75;84839;1323;22646;-71
2022/05/22 00:10:22;;;;;;;2.90;1.60;;;;;;;11.59;80.05;99975.95;84875;1325;22589;-71
2022/05/22 00:12:29;;;;;;;4.40;2.60;;;;;;;11.58;79.87;99976.71;84865;1328;22581;-71
2022/05/22 00:14:37;;;;;;;5.90;2.70;;;;;;;11.60;80.03;99976.95;84872;1328;24233;-71
2022/05/22 00:16:46;;;;;;;3.20;2.10;;;;;;;11.60;80.07;99971.73;84865;1325;22830;-71
2022/05/22 00:18:54;;;;;;;3.70;2.80;;;;;;;11.56;80.05;99973.85;84861;1324;22597;-71
2022/05/22 00:21:01;;;;;;;3.20;2.30;;;;;;;11.51;79.91;99971.09;84849;1328;26374;-73
2022/05/22 00:23:09;;;;;;;2.90;2.30;;;;;;;11.51;79.93;99971.80;84838;1328;22618;-72
2022/05/22 00:25:16;;;;;;;4.00;2.20;;;;;;;11.50;80.21;99973.65;84857;1327;22725;-72
2022/05/22 00:27:24;;;;;;;3.40;2.30;;;;;;;11.47;80.15;99974.27;84846;1325;22694;-73
2022/05/22 00:29:31;;;;;;;6.00;2.00;;;;;;;11.47;80.22;99972.70;84875;1328;22615;-72
2022/05/22 00:31:39;;;;;;;1.60;1.40;;;;;;;11.50;80.30;99974.67;84835;1325;22574;-72
2022/05/22 00:33:46;;;;;;;1.80;1.70;;;;;;;11.51;80.28;99973.05;84856;1325;22690;-72
2022/05/22 00:35:53;;;;;;;3.70;1.80;;;;;;;11.51;80.16;99973.89;84874;1327;24125;-72
2022/05/22 00:38:01;;;;;;;3.30;2.30;;;;;;;11.50;80.20;99974.48;84787;1325;22699;-72
2022/05/22 00:40:11;;;;;;;4.50;2.60;;;;;;;11.51;80.19;99974.98;84867;1328;22570;-72
2022/05/22 00:42:21;;;;;;;2.50;2.30;;;;;;;11.51;80.23;99977.77;84876;1325;22570;-72
2022/05/22 00:44:28;;;;;;;3.90;2.40;;;;;;;11.49;80.31;99977.86;84842;1324;22594;-72
2022/05/22 00:46:36;;;;;;;6.70;1.70;;;;;;;11.48;80.19;99978.06;84807;1328;22596;-72
2022/05/22 00:48:47;;;;;;;2.10;1.60;;;;;;;11.47;80.24;99977.25;84824;1326;22626;-72
2022/05/22 00:50:56;;;;;;;1.60;1.50;;;;;;;11.47;80.28;99974.65;84838;1321;22677;-72
2022/05/22 00:53:03;;;;;;;3.10;1.60;;;;;;;11.45;80.19;99973.51;84884;1327;22721;-72
2022/05/22 00:55:12;;;;;;;1.90;1.80;;;;;;;11.43;80.04;99971.84;84829;1325;22641;-72
2022/05/22 00:57:23;;;;;;;2.20;1.50;;;;;;;11.42;79.94;99975.95;84814;1328;26574;-72
2022/05/22 00:59:35;;;;;;;2.70;1.80;;;;;;;11.42;80.21;99971.92;84859;1325;22586;-72
2022/05/22 01:01:43;;;;;;;3.20;2.00;;;;;;;11.41;80.02;99972.48;84834;1325;22671;-72
2022/05/22 01:03:51;;;;;;;1.80;1.70;;;;;;;11.40;79.99;99968.50;84835;1326;22589;-72
2022/05/22 01:06:01;;;;;;;1.80;1.50;;;;;;;11.41;80.06;99971.95;84819;1324;23930;-72
2022/05/22 01:08:09;;;;;;;3.20;1.50;;;;;;;11.37;79.93;99971.10;84837;1324;22646;-72
2022/05/22 01:10:17;;;;;;;2.90;1.50;;;;;;;11.35;79.85;99969.94;84869;1324;22580;-72
2022/05/22 01:12:25;;;;;;;1.70;1.60;;;;;;;11.35;79.79;99970.81;84839;1328;22681;-73
2022/05/22 01:14:34;;;;;;;2.50;1.30;;;;;;;11.35;79.92;99969.94;84849;1327;22606;-72
2022/05/22 01:16:41;;;;;;;1.70;1.50;;;;;;;11.36;79.93;99969.70;84850;1328;22603;-72
2022/05/22 01:18:51;;;;;;;2.60;1.50;;;;;;;11.34;79.77;99970.70;84831;1324;22662;-73
2022/05/22 01:20:59;;;;;;;2.70;1.50;;;;;;;11.33;79.79;99973.20;84900;1325;26484;-72
2022/05/22 01:23:06;;;;;;;2.60;2.10;;;;;;;11.31;79.76;99974.14;84878;1324;25332;-72
2022/05/22 01:25:14;;;;;;;3.30;1.50;;;;;;;11.29;79.80;99971.81;84875;1323;24245;-72
2022/05/22 01:27:22;;;;;;;2.70;1.60;;;;;;;11.28;79.66;99970.82;84885;1328;22583;-73
2022/05/22 01:29:29;;;;;;;2.60;1.40;;;;;;;11.26;79.50;99974.94;84876;1328;24122;-72
2022/05/22 01:31:36;;;;;;;2.50;1.30;;;;;;;11.24;79.67;99975.87;84878;1328;22598;-72
2022/05/22 01:33:44;;;;;;;3.80;1.70;;;;;;;11.20;79.56;99978.37;84878;1327;25486;-72
2022/05/22 01:35:52;;;;;;;2.20;1.50;;;;;;;11.18;79.54;99979.35;84881;1324;23991;-72
2022/05/22 01:37:59;;;;;;;3.70;1.50;;;;;;;11.18;79.73;99982.48;84908;1325;22646;-73
2022/05/22 01:40:10;;;;;;;3.70;1.50;;;;;;;11.17;79.61;99983.20;84900;1328;22991;-70
2022/05/22 01:42:18;;;;;;;2.50;1.70;;;;;;;11.16;79.79;99986.59;84904;1327;24452;-71
2022/05/22 01:44:25;;;;;;;4.80;1.60;;;;;;;11.15;79.62;99983.48;84876;1328;25312;-71
2022/05/22 01:46:32;;;;;;;1.50;1.30;;;;;;;11.12;79.58;99989.71;84856;1324;22695;-71
2022/05/22 01:48:40;;;;;;;2.80;2.00;;;;;;;11.09;79.34;99992.12;84877;1327;22609;-72
2022/05/22 01:50:48;;;;;;;3.30;1.50;;;;;;;11.07;79.35;99991.86;84900;1325;22587;-72
2022/05/22 01:52:55;;;;;;;2.00;1.30;;;;;;;11.07;79.61;99987.12;84914;1325;23092;-72
2022/05/22 01:55:03;;;;;;;3.30;1.30;;;;;;;11.07;79.29;99992.71;84932;1328;22575;-72
2022/05/22 01:57:10;;;;;;;2.20;1.40;;;;;;;11.07;79.45;99995.36;84881;1327;22597;-72
2022/05/22 01:59:18;;;;;;;2.40;1.40;;;;;;;11.06;79.41;99993.64;84881;1324;25546;-72
2022/05/22 02:01:25;;;;;;;3.40;1.70;;;;;;;11.03;79.52;99997.81;84878;1325;22688;-73
2022/05/22 02:03:32;;;;;;;2.10;1.30;;;;;;;11.02;79.36;99997.70;84878;1328;22577;-73
2022/05/22 02:05:43;;;;;;;6.20;1.40;;;;;;;11.00;79.24;100004.25;84875;1326;24432;-72
2022/05/22 02:10:16;;;;;;;2.40;1.00;;;;;;;10.98;79.18;100001.38;84879;1325;22593;-72
2022/05/22 02:12:23;;;;;;;1.30;1.00;;;;;;;10.98;79.24;100002.59;84842;1326;22611;-72
2022/05/22 02:14:30;;;;;;;1.60;1.10;;;;;;;10.94;79.15;100002.41;84844;1328;22620;-72
2022/05/22 02:16:38;;;;;;;3.50;1.20;;;;;;;10.94;79.27;100000.89;84860;1326;24015;-72
2022/05/22 02:18:45;;;;;;;2.60;1.10;;;;;;;10.92;79.14;100003.55;84854;1329;25272;-72
2022/05/22 02:20:52;;;;;;;2.60;1.30;;;;;;;10.92;79.12;99998.85;84849;1327;23259;-72
2022/05/22 02:23:00;;;;;;;2.80;1.20;;;;;;;10.92;79.28;100000.09;84836;1325;24138;-72
2022/05/22 02:25:10;;;;;;;2.30;1.10;;;;;;;10.91;79.09;99996.98;84885;1327;22599;-73
2022/05/22 02:27:17;;;;;;;2.40;1.10;;;;;;;10.92;79.13;100000.94;84857;1328;22713;-72
2022/05/22 02:29:25;;;;;;;2.10;0.90;;;;;;;10.91;79.25;100003.08;84841;1322;22614;-72
2022/05/22 02:31:32;;;;;;;3.00;0.80;;;;;;;10.92;79.16;100004.26;84850;1325;22602;-72
2022/05/22 02:33:40;;;;;;;2.70;0.90;;;;;;;10.90;79.10;99999.83;84830;1325;22592;-72
2022/05/22 02:35:48;;;;;;;3.00;0.90;;;;;;;10.92;79.21;100001.30;84815;1326;26647;-72
2022/05/22 02:37:56;;;;;;;1.50;1.00;;;;;;;10.92;78.97;99997.09;84815;1325;24107;-72
2022/05/22 02:40:05;;;;;;;4.10;1.60;;;;;;;10.91;78.86;99992.63;84860;1329;22612;-72
2022/05/22 02:42:13;;;;;;;1.50;1.40;;;;;;;10.90;78.89;99995.78;84845;1329;23099;-72
2022/05/22 02:44:20;;;;;;;2.00;1.40;;;;;;;10.89;78.71;99998.66;84857;1327;22666;-72
2022/05/22 02:46:27;;;;;;;3.70;1.30;;;;;;;10.88;78.76;100002.33;84849;1327;22582;-72
2022/05/22 02:48:35;;;;;;;1.70;1.30;;;;;;;10.87;78.73;100001.86;84802;1327;24276;-72
2022/05/22 02:50:45;;;;;;;1.70;1.10;;;;;;;10.87;78.86;99999.07;84848;1321;22681;-72
2022/05/22 02:52:52;;;;;;;1.50;1.40;;;;;;;10.89;78.71;100004.59;84849;1327;22651;-72
2022/05/22 02:55:00;;;;;;;4.30;1.90;;;;;;;10.89;78.71;100004.23;84786;1326;22585;-72
2022/05/22 02:57:09;;;;;;;1.80;1.70;;;;;;;10.88;78.79;100002.35;84801;1329;23979;-72
2022/05/22 02:59:16;;;;;;;4.20;2.40;;;;;;;10.87;78.57;100001.16;84817;1329;22927;-72
2022/05/22 03:01:23;;;;;;;2.60;2.40;;;;;;;10.87;78.77;100001.35;84806;1329;24226;-72
2022/05/22 03:03:31;;;;;;;3.70;1.40;;;;;;;10.88;78.49;100007.06;84799;1329;26607;-72
2022/05/22 03:08:03;;;;;;;1.30;1.20;;;;;;;10.90;78.49;100013.11;84820;1330;22593;-73
2022/05/22 03:10:13;;;;;;;1.90;1.30;;;;;;;10.89;78.47;100008.94;84835;1329;22589;-73
2022/05/22 03:12:22;;;;;;;2.30;1.70;;;;;;;10.90;78.36;100007.84;84886;1325;22600;-73
2022/05/22 03:14:29;;;;;;;1.90;1.80;;;;;;;10.91;78.55;100010.08;84924;1327;22812;-73
2022/05/22 03:16:37;;;;;;;2.60;1.20;;;;;;;10.92;78.45;100006.87;84898;1324;22610;-73
2022/05/22 03:18:44;;;;;;;2.90;1.70;;;;;;;10.92;78.43;100009.12;84843;1327;22587;-73
2022/05/22 03:20:52;;;;;;;2.30;1.90;;;;;;;10.93;78.19;100011.20;84831;1329;22614;-72
2022/05/22 03:22:59;;;;;;;2.10;1.40;;;;;;;10.92;78.17;100011.40;84810;1326;22581;-72
2022/05/22 03:25:09;;;;;;;3.90;1.40;;;;;;;10.91;78.31;100013.56;84802;1326;22614;-72
2022/05/22 03:27:18;;;;;;;3.10;1.70;;;;;;;10.89;78.16;100014.70;84831;1329;23034;-72
2022/05/22 03:29:26;;;;;;;1.90;1.40;;;;;;;10.89;78.39;100010.88;84797;1329;22640;-72
2022/05/22 03:31:33;;;;;;;1.60;1.20;;;;;;;10.91;78.33;100012.52;84778;1327;22600;-72
2022/05/22 03:33:40;;;;;;;3.70;1.30;;;;;;;10.92;78.50;100012.63;84825;1327;22611;-72
2022/05/22 03:35:48;;;;;;;3.00;1.60;;;;;;;10.94;78.52;100009.76;84794;1330;22615;-72
2022/05/22 03:37:56;;;;;;;2.20;2.00;;;;;;;10.95;78.53;100007.30;84826;1328;22582;-72
2022/05/22 03:40:03;;;;;;;2.40;1.50;;;;;;;10.95;78.26;100009.35;84785;1328;22600;-72
2022/05/22 03:42:12;;;;;;;3.50;1.50;;;;;;;10.95;78.47;100008.16;84833;1329;22643;-72
2022/05/22 03:44:19;;;;;;;2.70;1.70;;;;;;;10.94;78.25;100009.23;84830;1327;22577;-72
2022/05/22 03:46:26;;;;;;;3.40;1.20;;;;;;;10.96;78.55;100006.73;84810;1329;22682;-73
2022/05/22 03:48:34;;;;;;;1.50;1.40;;;;;;;10.95;78.25;100009.88;84812;1327;26605;-73
2022/05/22 03:50:41;;;;;;;4.40;1.20;;;;;;;10.97;78.32;100010.31;84851;1329;24360;-72
2022/05/22 03:52:49;;;;;;;1.70;1.50;;;;;;;10.99;78.34;100008.30;84849;1327;22595;-72
2022/05/22 03:54:56;;;;;;;1.70;1.50;;;;;;;11.02;78.41;100009.76;84843;1327;22603;-73
2022/05/22 03:57:05;;;;;;;2.10;1.80;;;;;;;11.03;78.36;100010.05;84821;1329;22721;-72
2022/05/22 03:59:12;;;;;;;2.80;1.80;;;;;;;11.05;78.19;100011.14;84828;1327;24103;-72
2022/05/22 04:01:19;;;;;;;2.80;2.20;;;;;;;11.06;78.10;100006.77;84852;1326;24251;-72
2022/05/22 04:03:27;;;;;;;2.70;1.70;;;;;;;11.07;78.00;100007.23;84833;1329;22740;-72
2022/05/22 04:05:34;;;;;;;2.00;1.90;;;;;;;11.07;78.03;100005.13;84813;1326;22614;-72
2022/05/22 04:07:43;;;;;;;1.90;1.70;;;;;;;11.07;77.63;100008.95;84801;1327;22627;-72
2022/05/22 04:09:50;;;;;;;1.40;1.30;;;;;;;11.07;77.86;100009.84;84863;1321;25500;-72
2022/05/22 04:11:57;;;;;;;1.80;1.50;;;;;;;11.10;78.02;100010.40;84819;1326;26654;-72
2022/05/22 04:14:05;;;;;;;1.40;1.20;;;;;;;11.12;77.89;100014.33;84856;1327;24142;-72
2022/05/22 04:16:12;;;;;;;1.90;1.60;;;;;;;11.13;77.71;100013.76;84822;1327;23106;-72
2022/05/22 04:18:20;;;;;;;3.60;2.20;;;;;;;11.15;77.50;100015.45;84846;1328;22793;-72
2022/05/22 04:20:28;;;;;;;3.50;2.30;;;;;;;11.15;77.59;100012.29;84812;1327;24389;-72
2022/05/22 04:25:11;;;;;;;4.90;2.30;;;;;;;11.16;77.59;100018.54;84840;1329;25456;-72
2022/05/22 04:25:17;;;;;;;3.40;2.30;;;;;;;11.19;77.56;100017.02;84781;1329;22635;-72
2022/05/22 04:27:24;;;;;;;2.00;1.50;;;;;;;11.21;77.48;100018.11;84647;1324;22727;-72
2022/05/22 04:29:32;;;;;;;1.40;1.30;;;;;;;11.22;77.41;100014.05;84828;1329;22628;-72
2022/05/22 04:31:39;;;;;;;2.90;1.50;;;;;;;11.23;77.21;100015.06;84828;1326;24739;-72
2022/05/22 04:33:47;;;;;;;3.00;1.80;;;;;;;11.23;76.92;100019.95;84844;1326;22609;-72
2022/05/22 04:35:54;;;;;;;2.70;1.90;;;;;;;11.23;77.07;100016.46;84792;1331;25799;-72
2022/05/22 04:38:04;;;;;;;3.70;1.80;;;;;;;11.23;77.04;100016.43;84834;1327;22592;-72
2022/05/22 04:40:13;;;;;;;2.50;1.70;;;;;;;11.21;76.71;100010.06;84839;1329;22646;-72
2022/05/22 04:42:21;;;;;;;3.50;1.90;;;;;;;11.19;76.75;100011.95;84772;1330;25296;-72
2022/05/22 04:44:28;;;;;;;3.10;1.90;;;;;;;11.20;77.23;100010.81;84859;1329;22588;-72
2022/05/22 04:46:36;;;;;;;4.40;1.60;;;;;;;11.24;77.04;100012.38;84795;1330;22593;-72
2022/05/22 04:48:43;;;;;;;8.80;2.00;;;;;;;11.27;76.96;100011.56;84840;1329;26610;-72
2022/05/22 04:50:51;;;;;;;2.90;1.70;;;;;;;11.25;76.70;100009.02;84810;1326;24109;-72
2022/05/22 04:52:59;;;;;;;3.20;1.70;;;;;;;11.26;76.78;100012.45;84824;1329;22625;-72
2022/05/22 04:55:09;;;;;;;2.80;1.60;;;;;;;11.27;76.79;100010.14;84831;1327;22584;-72
2022/05/22 04:57:16;;;;;;;2.30;1.60;;;;;;;11.28;76.75;100007.65;84877;1327;23922;-72
2022/05/22 04:59:24;;;;;;;3.60;1.70;;;;;;;11.32;76.64;100009.55;84812;1329;24268;-72
2022/05/22 05:01:31;;;;;;;2.00;1.70;;;;;;;11.39;76.56;100009.27;84834;1329;22652;-72
2022/05/22 05:03:39;;;;;;;2.20;1.70;;;;;;;11.44;76.50;100007.98;84841;1327;24370;-72
2022/05/22 05:05:53;;;;;;;2.40;1.90;;;;;;;11.47;76.25;100013.75;84821;1329;22693;-73
2022/05/22 05:08:01;;;;;;;1.90;1.80;;;;;;;11.49;76.21;100015.63;84840;1329;23820;-73
2022/05/22 05:10:11;;;;;;;2.50;2.30;;;;;;;11.50;76.12;100014.11;84838;1329;22651;-70
2022/05/22 05:12:18;;;;;;;2.90;1.50;;;;;;;11.50;76.13;100016.56;84835;1329;22593;-72
2022/05/22 05:14:26;;;;;;;1.50;1.40;;;;;;;11.53;75.91;100014.70;84828;1329;23178;-72
2022/05/22 05:16:33;;;;;;;1.30;1.20;;;;;;;11.56;75.75;100017.15;84805;1329;22615;-73
2022/05/22 05:18:41;;;;;;;3.90;1.70;;;;;;;11.60;75.89;100023.63;84803;1326;22589;-73
2022/05/22 05:20:49;;;;;;;2.40;2.00;;;;;;;11.64;75.87;100022.36;84809;1329;22588;-72
2022/05/22 05:22:56;;;;;;;2.00;1.80;;;;;;;11.68;75.98;100024.80;84835;1327;24036;-72
2022/05/22 05:25:04;;;;;;;4.10;1.90;;;;;;;11.74;75.98;100025.77;84825;1329;22595;-72
2022/05/22 05:27:11;;;;;;;2.10;2.00;;;;;;;11.76;75.65;100028.45;84833;1327;25422;-73
2022/05/22 05:29:19;;;;;;;3.60;2.20;;;;;;;11.79;75.69;100028.98;84806;1327;25258;-72
2022/05/22 05:31:26;;;;;;;2.40;1.60;;;;;;;11.83;75.80;100020.94;84789;1327;24129;-73
2022/05/22 05:33:35;;;;;;;1.80;1.70;;;;;;;11.88;75.33;100023.50;84824;1324;24387;-72
2022/05/22 05:35:43;;;;;;;2.70;2.10;;;;;;;11.92;75.08;100022.29;84821;1329;22588;-72
2022/05/22 05:37:50;;;;;;;2.40;1.40;;;;;;;11.99;75.17;100020.02;84811;1330;24345;-73
2022/05/22 05:39:58;;;;;;;2.10;1.30;;;;;;;12.13;75.44;100021.56;84816;1329;22574;-72
2022/05/22 05:42:07;;;;;;;1.40;1.30;;;;;;;12.42;75.73;100021.33;84807;1329;22635;-72
2022/05/22 05:44:14;;;;;;;1.90;1.50;;;;;;;12.99;77.83;100017.11;84813;1328;22593;-72
2022/05/22 05:46:22;;;;;;;2.80;2.20;;;;;;;13.92;77.58;100006.36;84800;1328;22634;-72
2022/05/22 05:48:29;;;;;;;2.10;1.50;;;;;;;15.05;76.34;99997.66;84789;1329;22674;-72
2022/05/22 05:50:37;;;;;;;1.60;1.10;;;;;;;15.97;73.08;100001.63;84798;1328;24158;-73
2022/05/22 05:52:44;;;;;;;5.30;1.20;;;;;;;16.25;68.84;100004.20;84822;1322;22670;-72
2022/05/22 05:54:51;;;;;;;0.90;0.90;;;;;;;16.17;66.75;100001.33;84792;1329;22598;-72
2022/05/22 05:56:59;;;;;;;2.70;1.20;;;;;;;15.99;64.94;100005.88;84787;1328;22635;-72
2022/05/22 05:59:06;;;;;;;1.40;1.20;;;;;;;15.89;65.31;100006.57;84819;1327;22603;-72
2022/05/22 06:01:14;;;;;;;2.10;1.40;;;;;;;15.83;65.28;100009.42;84800;1327;22626;-72
2022/05/22 06:03:22;;;;;;;1.90;1.40;;;;;;;16.52;66.60;100006.75;84792;1322;22620;-72
2022/05/22 06:05:29;;;;;;;1.30;1.00;;;;;;;17.03;64.49;100005.17;84805;1329;22614;-72
2022/05/22 06:07:37;;;;;;;2.00;1.00;;;;;;;17.15;62.53;100010.48;84795;1327;22728;-72
2022/05/22 06:09:44;;;;;;;4.30;1.10;;;;;;;17.14;61.76;100009.64;84782;1329;22860;-72
2022/05/22 06:11:51;;;;;;;1.70;1.30;;;;;;;17.09;60.83;100007.58;84787;1327;24634;-72
2022/05/22 06:13:59;;;;;;;1.10;1.00;;;;;;;16.95;60.88;100010.10;84798;1327;25449;-72
2022/05/22 06:16:07;;;;;;;1.30;1.00;;;;;;;16.77;60.63;100015.42;84800;1328;22613;-72
2022/05/22 06:18:15;;;;;;;2.00;1.10;;;;;;;16.59;60.76;100018.06;84786;1330;22779;-72
2022/05/22 06:20:22;;;;;;;1.40;1.20;;;;;;;16.46;60.45;100015.25;84787;1327;22589;-72
2022/05/22 06:22:31;;;;;;;1.40;0.90;;;;;;;16.63;61.15;100016.02;84792;1329;22597;-72
2022/05/22 06:24:39;;;;;;;0.90;0.80;;;;;;;17.02;62.10;100016.66;84823;1326;24236;-72
2022/05/22 06:26:46;;;;;;;2.50;0.70;;;;;;;17.61;61.11;100008.90;84783;1329;22602;-72
2022/05/22 06:28:54;;;;;;;1.90;0.80;;;;;;;17.73;59.89;100007.34;84787;1329;22639;-72
2022/05/22 06:31:03;;;;;;;2.20;0.80;;;;;;;17.55;58.83;100015.91;84804;1326;25361;-72
2022/05/22 06:33:12;;;;;;;1.20;0.90;;;;;;;17.21;58.22;100021.68;84800;1322;22611;-71
2022/05/22 06:35:20;;;;;;;2.70;0.90;;;;;;;16.89;58.33;100021.83;84807;1328;22574;-71
2022/05/22 06:37:27;;;;;;;1.10;0.80;;;;;;;16.59;58.40;100022.46;84795;1328;22584;-71
2022/05/22 06:39:50;;;;;;;0.80;0.80;;;;;;;16.32;58.64;100024.08;84808;1329;22587;-72
2022/05/22 06:41:58;;;;;;;1.80;0.90;;;;;;;16.18;59.04;100019.96;84821;1323;22691;-70
2022/05/22 06:44:06;;;;;;;2.00;0.80;;;;;;;16.33;60.61;100022.07;84786;1327;23913;-72
2022/05/22 06:46:13;;;;;;;1.40;0.80;;;;;;;17.06;59.72;100021.48;84813;1327;22703;-72
2022/05/22 06:48:21;;;;;;;2.10;1.40;;;;;;;17.11;57.86;100020.10;84828;1327;22587;-72
2022/05/22 06:50:29;;;;;;;5.30;0.90;;;;;;;16.96;57.23;100020.44;84819;1328;22587;-71
2022/05/22 06:52:39;;;;;;;2.50;0.80;;;;;;;16.70;56.95;100022.25;84784;1327;22592;-71
2022/05/22 06:54:47;;;;;;;1.10;0.70;;;;;;;16.41;57.04;100021.20;84779;1328;26471;-71
2022/05/22 06:56:57;;;;;;;1.80;0.90;;;;;;;16.16;57.43;100020.10;84791;1325;25249;-71
2022/05/22 06:59:04;;;;;;;4.60;1.00;;;;;;;15.91;57.50;100021.56;84798;1327;24448;-72
2022/05/22 07:01:13;;;;;;;1.20;1.00;;;;;;;15.83;57.90;100019.13;84788;1325;25268;-72
2022/05/22 07:03:21;;;;;;;1.20;0.90;;;;;;;15.94;59.07;100020.31;84761;1328;24337;-72
2022/05/22 07:05:29;;;;;;;1.00;0.80;;;;;;;17.04;61.81;100015.27;84812;1326;22591;-72
2022/05/22 07:07:36;;;;;;;2.90;0.90;;;;;;;18.09;58.68;100008.02;84836;1327;22589;-72
2022/05/22 07:09:44;;;;;;;2.20;0.90;;;;;;;18.40;56.33;100012.39;84781;1327;24336;-70
2022/05/22 07:11:54;;;;;;;0.80;0.50;;;;;;;18.41;54.99;100006.11;84735;1326;24033;-71
2022/05/22 07:14:00;;;;;;;;;;;;;;;18.25;53.46;100007.36;84781;1322;24386;-71
2022/05/22 07:16:08;;;;;;;1.00;0.70;;;;;;;17.93;52.91;100009.61;84809;1329;22586;-70
2022/05/22 07:18:16;;;;;;;2.90;0.70;;;;;;;17.62;53.58;100012.53;84812;1327;22681;-70
2022/05/22 07:20:23;;;;;;;2.00;1.00;;;;;;;17.31;53.40;100022.18;84811;1326;24283;-71
2022/05/22 07:22:31;;;;;;;1.20;1.10;;;;;;;16.89;53.38;100023.20;84804;1327;22733;-71
2022/05/22 07:24:38;;;;;;;2.80;1.00;;;;;;;16.55;54.26;100026.43;84797;1325;22618;-74
2022/05/22 07:26:46;;;;;;;1.40;0.70;;;;;;;16.37;55.12;100029.25;84794;1327;24362;-73
2022/05/22 07:28:53;;;;;;;1.90;0.80;;;;;;;16.39;55.75;100024.01;84799;1329;22607;-72
2022/05/22 07:31:01;;;;;;;2.40;0.70;;;;;;;16.55;55.94;100022.39;84798;1328;22662;-71
2022/05/22 07:33:09;;;;;;;1.20;0.80;;;;;;;16.86;55.92;100020.99;84804;1323;22599;-73
2022/05/22 07:35:16;;;;;;;1.70;1.20;;;;;;;17.12;55.79;100017.23;84814;1318;22703;-73
2022/05/22 07:37:24;;;;;;;1.90;1.20;;;;;;;17.60;56.25;100010.95;84791;1322;22742;-73
2022/05/22 07:39:31;;;;;;;2.30;1.10;;;;;;;17.89;55.21;100007.59;84796;1329;24158;-72
2022/05/22 07:41:39;;;;;;;1.20;0.90;;;;;;;17.89;54.31;100010.55;84805;1327;22602;-72
2022/05/22 07:43:46;;;;;;;0.70;0.70;;;;;;;17.81;54.30;100008.52;84784;1322;25726;-73
2022/05/22 07:45:57;;;;;;;0.90;0.80;;;;;;;17.70;53.29;100009.34;84816;1329;22647;-71
2022/05/22 07:48:05;;;;;;;0.70;0.70;;;;;;;17.58;53.16;100013.37;84807;1329;22591;-70
2022/05/22 07:50:20;;;;;;;2.00;0.70;;;;;;;17.50;52.83;100022.20;84799;1329;22590;-71
2022/05/22 07:52:28;;;;;;;1.20;0.90;;;;;;;17.38;53.32;100025.38;84797;1329;22700;-71
2022/05/22 07:54:37;;;;;;;0.90;0.80;;;;;;;17.35;53.71;100024.90;84809;1325;22834;-71
2022/05/22 07:56:45;;;;;;;1.10;0.70;;;;;;;17.42;53.90;100019.48;84780;1322;22639;-70
2022/05/22 07:58:52;;;;;;;1.40;0.80;;;;;;;17.40;53.76;100023.15;84798;1328;22615;-73
2022/05/22 08:01:00;;;;;;;1.80;0.90;;;;;;;17.49;54.41;100022.81;84807;1327;22592;-71
2022/05/22 08:03:12;;;;;;;2.60;0.80;;;;;;;18.43;55.09;100014.45;84769;1318;22593;-71
2022/05/22 08:05:21;;;;;;;1.30;0.70;;;;;;;19.54;53.41;100013.21;84775;1328;23011;-71
2022/05/22 08:07:28;;;;;;;2.70;0.90;;;;;;;20.81;52.27;100006.27;84794;1328;22608;-71
2022/05/22 08:09:36;;;;;;;2.20;1.00;;;;;;;21.41;48.88;100003.32;84811;1328;22601;-71
2022/05/22 08:11:44;;;;;;;1.20;0.60;;;;;;;21.47;46.80;100003.54;84766;1329;22595;-72
2022/05/22 08:13:51;;;;;;;1.10;0.90;;;;;;;21.12;46.18;100011.61;84799;1327;24086;-71
2022/05/22 08:15:58;;;;;;;1.00;0.90;;;;;;;20.68;46.11;100020.00;84781;1322;22899;-71
2022/05/22 08:18:07;;;;;;;1.60;0.70;;;;;;;20.28;46.60;100020.50;84785;1326;22597;-71
2022/05/22 08:20:17;;;;;;;2.20;0.90;;;;;;;19.95;47.00;100016.58;84812;1327;22610;-71
2022/05/22 08:22:25;;;;;;;0.90;0.80;;;;;;;20.14;47.86;100021.02;84824;1328;22634;-70
2022/05/22 08:24:34;;;;;;;2.10;0.70;;;;;;;20.26;47.45;100015.20;84777;1327;22611;-71
2022/05/22 08:26:41;;;;;;;1.20;0.90;;;;;;;20.10;46.95;100016.36;84818;1329;22616;-71
2022/05/22 08:28:49;;;;;;;7.60;0.90;;;;;;;19.76;46.93;100015.83;84867;1329;22743;-71
2022/05/22 08:30:56;;;;;;;1.10;0.90;;;;;;;19.37;47.06;100020.05;84854;1327;22625;-71
2022/05/22 08:33:04;;;;;;;1.50;0.90;;;;;;;19.52;48.85;100018.52;84828;1329;22596;-71
2022/05/22 08:35:13;;;;;;;1.50;1.00;;;;;;;20.32;49.29;100013.32;84862;1326;22588;-72
2022/05/22 08:37:21;;;;;;;0.80;0.80;;;;;;;21.45;47.65;100005.41;84800;1329;22602;-72
2022/05/22 08:39:28;;;;;;;3.90;0.90;;;;;;;22.55;46.40;99998.26;84804;1329;24069;-72
2022/05/22 08:41:38;;;;;;;2.10;0.80;;;;;;;23.60;44.31;99987.29;84797;1328;24617;-72
2022/05/22 08:43:49;;;;;;;0.50;0.50;;;;;;;23.65;41.00;99986.11;84802;1326;22706;-72
2022/05/22 08:46:00;;;;;;;1.80;0.70;;;;;;;23.05;40.20;99988.70;84776;1329;22586;-73
2022/05/22 08:48:11;;;;;;;1.00;0.70;;;;;;;22.37;40.38;99994.83;84791;1326;22635;-73
2022/05/22 08:50:18;;;;;;;2.60;0.60;;;;;;;21.56;41.05;99998.77;84801;1328;22748;-73
2022/05/22 08:52:29;;;;;;;2.60;0.90;;;;;;;21.02;42.53;100004.09;84784;1325;22596;-73
2022/05/22 08:54:39;;;;;;;3.80;0.80;;;;;;;20.70;43.28;100007.77;84775;1322;24403;-71
2022/05/22 08:59:15;;;;;;;1.00;0.60;;;;;;;21.65;44.49;99991.28;84773;1328;26622;-72
2022/05/22 09:01:31;;;;;;;3.30;0.80;;;;;;;22.44;43.33;99992.84;84793;1328;25336;-73
2022/05/22 09:03:45;;;;;;;3.90;0.80;;;;;;;23.42;41.67;99987.09;84767;1327;25077;-72
2022/05/22 09:05:52;;;;;;;1.50;0.80;;;;;;;24.06;40.08;99995.52;84790;1326;22599;-72
2022/05/22 09:08:02;;;;;;;1.50;0.90;;;;;;;24.50;39.10;99994.14;84808;1325;22600;-72
2022/05/22 09:10:12;;;;;;;3.80;0.90;;;;;;;24.20;37.73;99999.65;84801;1328;22579;-72
2022/05/22 09:12:27;;;;;;;;;;;;;;;23.58;37.24;99999.28;84793;1329;22633;-72
2022/05/22 09:14:40;;;;;;;2.30;0.80;;;;;;;22.75;37.84;100008.84;84847;1329;22669;-73
2022/05/22 09:16:55;;;;;;;0.60;0.60;;;;;;;22.26;39.28;100005.47;84811;1329;23956;-73
2022/05/22 09:19:06;;;;;;;2.90;0.80;;;;;;;22.34;39.30;100002.92;84830;1327;22606;-72
2022/05/22 09:21:25;;;;;;;1.40;0.60;;;;;;;22.28;40.31;99997.42;84821;1326;23982;-72
2022/05/22 09:23:58;;;;;;;1.80;0.80;;;;;;;22.01;39.75;99988.54;84781;1325;22594;-72
2022/05/22 09:26:09;;;;;;;1.30;0.70;;;;;;;21.54;39.48;99995.65;84826;1328;22637;-72
2022/05/22 09:28:23;;;;;;;2.10;0.90;;;;;;;21.08;39.75;99998.46;84783;1328;22606;-71
2022/05/22 09:30:34;;;;;;;0.60;0.60;;;;;;;20.71;40.30;99996.68;84811;1326;22593;-71
2022/05/22 09:32:53;;;;;;;1.50;1.00;;;;;;;20.32;40.51;100000.73;84837;1327;23074;-71
2022/05/22 09:35:11;;;;;;;3.60;1.00;;;;;;;20.24;42.36;99996.40;84802;1327;22659;-72
2022/05/22 09:37:26;;;;;;;1.60;1.10;;;;;;;20.34;42.67;99995.55;84801;1328;25352;-71
2022/05/22 09:39:49;;;;;;;1.60;0.80;;;;;;;20.20;42.44;99991.59;84819;1327;26714;-71
2022/05/22 09:42:05;;;;;;;1.50;0.70;;;;;;;19.76;41.59;100004.13;84793;1326;22615;-71
2022/05/22 09:44:26;;;;;;;3.30;0.90;;;;;;;19.36;42.36;100007.00;84792;1327;22657;-71
2022/05/22 09:46:46;;;;;;;1.00;0.70;;;;;;;18.96;42.91;100008.23;84789;1327;22593;-71
2022/05/22 09:49:02;;;;;;;1.40;0.80;;;;;;;18.69;43.66;100019.92;84815;1329;22661;-71
2022/05/22 09:51:16;;;;;;;1.50;1.20;;;;;;;18.51;44.43;100012.75;84820;1328;25334;-72
2022/05/22 09:53:32;;;;;;;0.80;0.70;;;;;;;18.41;44.66;100004.58;84825;1318;22617;-70
2022/05/22 09:55:47;;;;;;;2.20;0.70;;;;;;;18.53;45.24;100004.13;84815;1326;22878;-72
2022/05/22 09:58:14;;;;;;;1.30;0.80;;;;;;;18.94;45.43;99994.98;84857;1321;22620;-71
2022/05/22 10:00:23;;;;;;;2.70;1.10;;;;;;;19.27;44.88;99988.83;84820;1327;25553;-72
2022/05/22 10:02:36;;;;;;;2.90;0.80;;;;;;;19.69;44.88;99988.61;84792;1328;22650;-72
2022/05/22 10:04:52;;;;;;;1.20;0.90;;;;;;;20.18;44.67;99986.62;84820;1327;22764;-71
2022/05/22 10:07:05;;;;;;;3.00;1.00;;;;;;;20.46;43.63;99985.39;84821;1326;24112;-71
2022/05/22 10:09:26;;;;;;;2.20;0.90;;;;;;;20.50;42.23;99993.48;84798;1326;24383;-71
2022/05/22 10:11:38;;;;;;;1.10;0.70;;;;;;;20.27;41.73;99999.52;84804;1326;22604;-71